Flight Track Log - Related Links

Times and Time Zones

All times are in EDT time to prevent confusion due to time zone crossing. See the N7358G flight status page for this flight to view local times or setup timezone preferences in your user account.

Time Position Orientation Groundspeed Altitude Reporting Facility
EDT Latitude Longitude Course Direction KTS MPH feet Rate Location/Type
Sat 21:03:13 26.2261 -80.1689 351° North 86 99 1,000  Level Miami Center
Sat 21:03:28 26.2306 -80.1731 320° Northwest 88 101 1,100 393 Climbing Miami Center
Sat 21:04:14 26.2472 -80.1814 336° Northwest 87 100 1,400 448 Climbing Miami Center
Sat 21:04:35 26.2569 -80.1867 334° Northwest 91 105 1,600 393 Climbing Miami Center
Sat 21:05:15 26.2725 -80.1933 339° North 90 104 1,800 297 Climbing Miami Center
Sat 21:06:16 26.2983 -80.2081 333° Northwest 95 109 2,100 344 Climbing Miami Center
Sat 21:07:17 26.3247 -80.2164 344° North 95 109 2,500 246 Climbing Miami Center
Sat 21:08:18 26.3503 -80.2292 336° Northwest 101 116 2,600 49 Climbing Miami Center
Sat 21:09:19 26.3803 -80.2311 357° North 106 122 2,600  Level Miami Center
Sat 21:10:20 26.4111 -80.2378 349° North 109 125 2,600 98 Level Miami Center
Sat 21:11:21 26.4411 -80.2494 341° North 107 123 2,800 246 Climbing Miami Center
Sat 21:12:22 26.4683 -80.2628 336° Northwest 104 120 3,100 295 Climbing Miami Center
Sat 21:13:23 26.4936 -80.2744 338° Northwest 101 116 3,400 298 Climbing Miami Center
Sat 21:14:23 26.5181 -80.2858 337° Northwest 99 114 3,700 298 Climbing Miami Center
Sat 21:15:24 26.5422 -80.2972 337° Northwest 93 107 4,000 295 Climbing Miami Center
Sat 21:16:25 26.5678 -80.3081 339° North 90 104 4,300 295 Climbing Miami Center
Sat 21:17:26 26.5911 -80.3200 335° Northwest 92 106 4,600 148 Climbing Miami Center
Sat 21:18:27 26.6139 -80.3336 332° Northwest 92 106 4,600  Level Miami Center
Sat 21:19:28 26.6419 -80.3439 342° North 107 123 4,600  Level Miami Center
Sat 21:20:29 26.6703 -80.3531 344° North 104 120 4,600 -49 Level Miami Center
Sat 21:21:30 26.6997 -80.3658 339° North 105 121 4,500 -49 Descending Miami Center
Sat 21:22:31 26.7258 -80.3800 334° Northwest 103 119 4,500  Level Miami Center
Sat 21:23:32 26.7533 -80.3911 340° North 105 121 4,500 49 Level Miami Center
Sat 21:24:33 26.7783 -80.4022 338° Northwest 95 109 4,600  Climbing Miami Center
Sat 21:25:34 26.8053 -80.4136 339° North 100 115 4,500  Descending Miami Center
Sat 21:26:35 26.8306 -80.4244 339° North 97 112 4,600 49 Climbing Miami Center
Sat 21:27:36 26.8581 -80.4369 338° Northwest 100 115 4,600  Level Miami Center
Sat 21:28:37 26.8828 -80.4478 339° North 97 112 4,600 -49 Level Miami Center
Sat 21:29:38 26.9106 -80.4597 339° North 101 116 4,500 -49 Descending Miami Center
Sat 21:30:39 26.9364 -80.4703 340° North 101 116 4,500  Level Miami Center
Sat 21:31:40 26.9639 -80.4775 347° North 100 115 4,500 49 Level Miami Center
Sat 21:32:41 26.9897 -80.4917 334° Northwest 98 113 4,600 49 Climbing Miami Center
Sat 21:33:42 27.0142 -80.5022 339° North 98 113 4,600  Level Miami Center
Sat 21:34:43 27.0414 -80.5142 339° North 100 115 4,600  Level Miami Center
Sat 21:35:45 27.0667 -80.5300 331° Northwest 98 113 4,600  Level Miami Center
Sat 21:36:46 27.0911 -80.5428 335° Northwest 100 115 4,600  Level Miami Center
Sat 21:37:46 27.1178 -80.5583 333° Northwest 105 121 4,600 -48 Level Miami Center
Sat 21:38:50 27.1456 -80.5736 334° Northwest 105 121 4,500 -96 Descending Miami Center
Sat 21:39:51 27.1717 -80.5853 338° Northwest 105 121 4,400 -50 Descending Miami Center
Sat 21:40:50 27.1983 -80.5992 335° Northwest 104 120 4,400 50 Level Miami Center
Sat 21:41:51 27.2217 -80.6100 338° Northwest 97 112 4,500 97 Climbing Miami Center
Sat 21:42:54 27.2467 -80.6228 336° Northwest 97 112 4,600 49 Climbing Miami Center
Sat 21:43:54 27.2739 -80.6364 336° Northwest 98 113 4,600 -49 Level Miami Center
Sat 21:44:56 27.2989 -80.6467 340° North 98 113 4,500  Descending Miami Center
Sat 21:45:55 27.3256 -80.6592 337° Northwest 101 116 4,600  Climbing Miami Center
Sat 21:46:57 27.3525 -80.6739 334° Northwest 101 116 4,500 -49 Descending Miami Center
Sat 21:47:58 27.3772 -80.6856 337° Northwest 101 116 4,500  Level Miami Center
Sat 21:48:57 27.4047 -80.6992 336° Northwest 102 117 4,500  Level Miami Center
Sat 21:49:59 27.4286 -80.7119 335° Northwest 101 116 4,500 50 Level Miami Center
Sat 21:50:58 27.4547 -80.7264 334° Northwest 101 116 4,600 49 Climbing Miami Center
Sat 21:52:02 27.4794 -80.7383 337° Northwest 101 116 4,600 -48 Level Miami Center
Sat 21:53:02 27.5061 -80.7533 333° Northwest 101 116 4,500 -50 Descending Miami Center
Sat 21:54:03 27.5325 -80.7669 335° Northwest 101 116 4,500 50 Level Miami Center
Sat 21:55:02 27.5606 -80.7756 345° North 101 116 4,600 49 Climbing Miami Center
Sat 21:56:05 27.5853 -80.7853 341° North 101 116 4,600 -48 Level Miami Center
Sat 21:57:06 27.6125 -80.7978 338° Northwest 100 115 4,500 -49 Descending Miami Center
Sat 21:58:07 27.6378 -80.8106 336° Northwest 101 116 4,500 50 Level Miami Center
Sat 21:59:07 27.6639 -80.8219 339° North 99 114 4,600 50 Climbing Miami Center
Sat 22:00:08 27.6908 -80.8317 342° North 98 113 4,600  Level Miami Center
Sat 22:01:09 27.7181 -80.8403 344° North 101 116 4,600 -98 Level Miami Center
Sat 22:02:10 27.7458 -80.8525 339° North 101 116 4,400 -151 Descending Miami Center
Sat 22:03:08 27.7725 -80.8672 334° Northwest 108 124 4,300 -101 Descending Miami Center
Sat 22:04:09 27.7997 -80.8822 334° Northwest 107 123 4,200 -198 Descending Miami Center
Sat 22:05:09 27.8289 -80.8983 334° Northwest 108 124 3,900 -97 Descending Miami Center
Sat 22:06:13 27.8558 -80.9039 350° North 106 122 4,000 -49 Climbing Miami Center
Sat 22:07:11 27.8831 -80.9164 338° Northwest 103 119 3,800 -149 Descending Miami Center
Sat 22:08:14 27.9089 -80.9258 342° North 101 116 3,700 -98 Descending Miami Center
Sat 22:09:14 27.9372 -80.9339 346° North 101 116 3,600 -49 Descending Miami Center
Sat 22:10:16 27.9617 -80.9494 331° Northwest 99 114 3,600 -49 Level Miami Center
Sat 22:11:16 27.9872 -80.9600 340° North 100 115 3,500  Descending Miami Center
Sat 22:12:17 28.0156 -80.9700 343° North 103 119 3,600 50 Climbing Miami Center
Sat 22:13:17 28.0411 -80.9794 342° North 99 114 3,600 50 Level Miami Center
Sat 22:14:18 28.0694 -80.9883 345° North 101 116 3,700 49 Climbing Miami Center
Sat 22:15:19 28.0958 -81.0003 338° Northwest 99 114 3,700  Level Miami Center
Sat 22:16:19 28.1203 -81.0108 339° North 99 114 3,700 -49 Level Miami Center
Sat 22:17:21 28.1475 -81.0217 341° North 100 115 3,600 -146 Descending Miami Center
Sat 22:18:22 28.1758 -81.0328 341° North 104 120 3,400 -50 Descending Miami Center
Sat 22:19:20 28.2022 -81.0403 346° North 97 112 3,500 99 Climbing Miami Center
Sat 22:20:23 28.2289 -81.0481 346° North 97 112 3,600  Climbing Miami Center
Sat 22:21:24 28.2561 -81.0594 340° North 102 117 3,500 -150 Descending Miami Center
Sat 22:22:23 28.2850 -81.0700 342° North 106 122 3,300 -248 Descending Miami Center
Sat 22:23:25 28.3172 -81.0756 351° North 112 129 3,000 -195 Descending Miami Center
Sat 22:24:26 28.3481 -81.0831 348° North 113 130 2,900 -53 Descending Miami Center
Sat 22:25:19 28.3833 -81.0833 360° North 102 117 2,900  Level Orlando TRACON
Sat 22:26:19 28.4000 -81.1000 319° Northwest 103 119 2,900  Level Orlando TRACON
Sat 22:27:19 28.4333 -81.1000 360° North 105 121 2,900  Level Orlando TRACON
Sat 22:28:19 28.4667 -81.1000 360° North 105 121 2,900  Level Orlando TRACON
Sat 22:29:19 28.5000 -81.1000 360° North 107 123 2,900  Level Orlando TRACON
Sat 22:30:19 28.5167 -81.1000 360° North 106 122 2,900  Level Orlando TRACON
Sat 22:31:19 28.5500 -81.1167 336° Northwest 108 124 2,900  Level Orlando TRACON
Sat 22:32:19 28.5833 -81.1333 336° Northwest 103 119 2,900  Level Orlando TRACON
Sat 22:33:19 28.6000 -81.1500 319° Northwest 100 115 2,900  Level Orlando TRACON
Sat 22:34:19 28.6000 -81.1833 270° West 96 110 2,900 -250 Level Orlando TRACON
Sat 22:35:19 28.6000 -81.2000 270° West 105 121 2,400 -500 Descending Orlando TRACON

Login

Don't have an account? Register now (free) for customized features, flight alerts, and more!